sensor_id;sensor_type;location;lat;lon;timestamp;pressure;altitude;pressure_sealevel;temperature;humidity
40650;BME280;26342;42.826;23.992;2024-03-08T00:00:11;95464.25;;;4.02;100.00
40650;BME280;26342;42.826;23.992;2024-03-08T00:02:43;95463.19;;;4.09;100.00
40650;BME280;26342;42.826;23.992;2024-03-08T00:05:09;95467.81;;;4.14;100.00
40650;BME280;26342;42.826;23.992;2024-03-08T00:07:38;95460.09;;;4.19;100.00
40650;BME280;26342;42.826;23.992;2024-03-08T00:10:05;95458.25;;;4.19;100.00
40650;BME280;26342;42.826;23.992;2024-03-08T00:12:31;95451.31;;;4.18;100.00
40650;BME280;26342;42.826;23.992;2024-03-08T00:14:57;95447.03;;;4.24;100.00
40650;BME280;26342;42.826;23.992;2024-03-08T00:17:22;95444.38;;;4.24;100.00
40650;BME280;26342;42.826;23.992;2024-03-08T00:19:50;95442.31;;;4.26;100.00
40650;BME280;26342;42.826;23.992;2024-03-08T00:22:17;95451.28;;;4.25;100.00
40650;BME280;26342;42.826;23.992;2024-03-08T00:24:43;95420.28;;;4.14;100.00
40650;BME280;26342;42.826;23.992;2024-03-08T00:27:08;95447.56;;;4.33;100.00
40650;BME280;26342;42.826;23.992;2024-03-08T00:29:34;95454.03;;;4.37;100.00
40650;BME280;26342;42.826;23.992;2024-03-08T00:32:00;95450.75;;;4.41;100.00
40650;BME280;26342;42.826;23.992;2024-03-08T00:34:26;95440.84;;;4.37;100.00
40650;BME280;26342;42.826;23.992;2024-03-08T00:36:52;95450.38;;;4.38;100.00
40650;BME280;26342;42.826;23.992;2024-03-08T00:39:18;95438.34;;;4.17;100.00
40650;BME280;26342;42.826;23.992;2024-03-08T00:41:45;95450.31;;;4.19;100.00
40650;BME280;26342;42.826;23.992;2024-03-08T00:44:10;95446.66;;;4.20;100.00
40650;BME280;26342;42.826;23.992;2024-03-08T00:46:36;95447.50;;;4.14;100.00
40650;BME280;26342;42.826;23.992;2024-03-08T00:49:01;95445.72;;;4.08;100.00
40650;BME280;26342;42.826;23.992;2024-03-08T00:51:26;95446.00;;;3.93;100.00
40650;BME280;26342;42.826;23.992;2024-03-08T00:53:52;95437.28;;;3.93;100.00
40650;BME280;26342;42.826;23.992;2024-03-08T00:56:17;95431.19;;;3.92;100.00
40650;BME280;26342;42.826;23.992;2024-03-08T00:58:43;95443.78;;;3.97;100.00
40650;BME280;26342;42.826;23.992;2024-03-08T01:01:08;95441.72;;;3.99;100.00
40650;BME280;26342;42.826;23.992;2024-03-08T01:03:35;95445.97;;;4.00;100.00
40650;BME280;26342;42.826;23.992;2024-03-08T01:06:01;95445.59;;;3.97;100.00
40650;BME280;26342;42.826;23.992;2024-03-08T01:08:27;95440.06;;;4.05;100.00
40650;BME280;26342;42.826;23.992;2024-03-08T01:10:53;95438.00;;;4.07;100.00
40650;BME280;26342;42.826;23.992;2024-03-08T01:13:19;95436.56;;;4.11;100.00
40650;BME280;26342;42.826;23.992;2024-03-08T01:15:44;95431.47;;;4.09;100.00
40650;BME280;26342;42.826;23.992;2024-03-08T01:18:11;95425.41;;;4.09;100.00
40650;BME280;26342;42.826;23.992;2024-03-08T01:20:37;95426.00;;;4.11;100.00
40650;BME280;26342;42.826;23.992;2024-03-08T01:23:02;95429.88;;;4.08;100.00
40650;BME280;26342;42.826;23.992;2024-03-08T01:25:28;95431.28;;;4.11;100.00
40650;BME280;26342;42.826;23.992;2024-03-08T01:27:54;95420.72;;;4.11;100.00
40650;BME280;26342;42.826;23.992;2024-03-08T01:30:19;95422.13;;;4.13;100.00
40650;BME280;26342;42.826;23.992;2024-03-08T01:32:45;95421.31;;;4.13;100.00
40650;BME280;26342;42.826;23.992;2024-03-08T01:35:10;95423.16;;;4.12;100.00
40650;BME280;26342;42.826;23.992;2024-03-08T01:37:36;95423.16;;;4.12;100.00
40650;BME280;26342;42.826;23.992;2024-03-08T01:40:02;95431.03;;;4.19;100.00
40650;BME280;26342;42.826;23.992;2024-03-08T01:42:28;95417.38;;;4.22;100.00
40650;BME280;26342;42.826;23.992;2024-03-08T01:44:54;95430.59;;;4.22;100.00
40650;BME280;26342;42.826;23.992;2024-03-08T01:47:21;95428.84;;;4.34;100.00
40650;BME280;26342;42.826;23.992;2024-03-08T01:49:51;95422.75;;;4.34;100.00
40650;BME280;26342;42.826;23.992;2024-03-08T01:52:18;95420.50;;;4.37;100.00
40650;BME280;26342;42.826;23.992;2024-03-08T01:54:47;95421.38;;;4.31;100.00
40650;BME280;26342;42.826;23.992;2024-03-08T01:57:13;95418.94;;;4.30;100.00
40650;BME280;26342;42.826;23.992;2024-03-08T01:59:40;95426.69;;;4.25;100.00
40650;BME280;26342;42.826;23.992;2024-03-08T02:02:07;95420.59;;;4.24;100.00
40650;BME280;26342;42.826;23.992;2024-03-08T02:04:34;95419.44;;;4.20;100.00
40650;BME280;26342;42.826;23.992;2024-03-08T02:06:59;95415.22;;;4.12;100.00
40650;BME280;26342;42.826;23.992;2024-03-08T02:09:25;95417.66;;;4.14;100.00
40650;BME280;26342;42.826;23.992;2024-03-08T02:11:51;95425.00;;;4.12;100.00
40650;BME280;26342;42.826;23.992;2024-03-08T02:14:19;95415.91;;;4.01;100.00
40650;BME280;26342;42.826;23.992;2024-03-08T02:16:45;95417.34;;;4.04;100.00
40650;BME280;26342;42.826;23.992;2024-03-08T02:19:10;95420.78;;;4.04;100.00
40650;BME280;26342;42.826;23.992;2024-03-08T02:21:36;95421.94;;;4.08;100.00
40650;BME280;26342;42.826;23.992;2024-03-08T02:24:04;95419.97;;;4.04;100.00
40650;BME280;26342;42.826;23.992;2024-03-08T02:26:30;95429.28;;;4.06;100.00
40650;BME280;26342;42.826;23.992;2024-03-08T02:28:56;95426.41;;;4.08;100.00
40650;BME280;26342;42.826;23.992;2024-03-08T02:31:21;95425.84;;;4.06;100.00
40650;BME280;26342;42.826;23.992;2024-03-08T02:33:47;95423.81;;;4.01;100.00
40650;BME280;26342;42.826;23.992;2024-03-08T02:36:12;95413.53;;;3.93;100.00
40650;BME280;26342;42.826;23.992;2024-03-08T02:38:38;95433.00;;;3.99;100.00
40650;BME280;26342;42.826;23.992;2024-03-08T02:41:06;95436.66;;;3.98;100.00
40650;BME280;26342;42.826;23.992;2024-03-08T02:43:31;95431.38;;;3.98;100.00
40650;BME280;26342;42.826;23.992;2024-03-08T02:45:56;95435.16;;;4.08;100.00
40650;BME280;26342;42.826;23.992;2024-03-08T02:48:22;95435.38;;;4.07;100.00
40650;BME280;26342;42.826;23.992;2024-03-08T02:50:48;95435.00;;;4.03;100.00
40650;BME280;26342;42.826;23.992;2024-03-08T02:53:14;95441.34;;;3.96;100.00
40650;BME280;26342;42.826;23.992;2024-03-08T02:55:40;95440.53;;;3.95;100.00
40650;BME280;26342;42.826;23.992;2024-03-08T02:58:06;95437.91;;;3.95;100.00
40650;BME280;26342;42.826;23.992;2024-03-08T03:00:35;95438.72;;;3.96;100.00
40650;BME280;26342;42.826;23.992;2024-03-08T03:03:01;95439.09;;;3.99;100.00
40650;BME280;26342;42.826;23.992;2024-03-08T03:05:28;95438.81;;;4.07;100.00
40650;BME280;26342;42.826;23.992;2024-03-08T03:07:55;95448.28;;;3.90;100.00
40650;BME280;26342;42.826;23.992;2024-03-08T03:10:21;95439.78;;;3.88;100.00
40650;BME280;26342;42.826;23.992;2024-03-08T03:12:47;95448.50;;;3.88;100.00
40650;BME280;26342;42.826;23.992;2024-03-08T03:15:14;95452.91;;;3.95;100.00
40650;BME280;26342;42.826;23.992;2024-03-08T03:17:40;95449.88;;;3.98;100.00
40650;BME280;26342;42.826;23.992;2024-03-08T03:20:08;95439.94;;;3.93;100.00
40650;BME280;26342;42.826;23.992;2024-03-08T03:22:39;95457.00;;;3.90;100.00
40650;BME280;26342;42.826;23.992;2024-03-08T03:25:09;95458.06;;;3.83;100.00
40650;BME280;26342;42.826;23.992;2024-03-08T03:27:35;95457.69;;;3.79;100.00
40650;BME280;26342;42.826;23.992;2024-03-08T03:30:00;95462.00;;;3.74;100.00
40650;BME280;26342;42.826;23.992;2024-03-08T03:32:46;95463.81;;;3.73;100.00
40650;BME280;26342;42.826;23.992;2024-03-08T03:35:13;95459.16;;;3.69;100.00
40650;BME280;26342;42.826;23.992;2024-03-08T03:37:38;95459.59;;;3.66;100.00
40650;BME280;26342;42.826;23.992;2024-03-08T03:40:05;95469.34;;;3.65;100.00
40650;BME280;26342;42.826;23.992;2024-03-08T03:42:31;95457.97;;;3.64;100.00
40650;BME280;26342;42.826;23.992;2024-03-08T03:44:56;95468.47;;;3.71;100.00
40650;BME280;26342;42.826;23.992;2024-03-08T03:47:22;95466.06;;;3.70;100.00
40650;BME280;26342;42.826;23.992;2024-03-08T03:49:47;95470.75;;;3.68;100.00
40650;BME280;26342;42.826;23.992;2024-03-08T03:52:12;95471.19;;;3.64;100.00
40650;BME280;26342;42.826;23.992;2024-03-08T03:54:38;95468.53;;;3.64;100.00
40650;BME280;26342;42.826;23.992;2024-03-08T03:57:04;95468.78;;;3.56;100.00
40650;BME280;26342;42.826;23.992;2024-03-08T03:59:29;95480.53;;;3.60;100.00
40650;BME280;26342;42.826;23.992;2024-03-08T04:01:55;95480.94;;;3.57;100.00
40650;BME280;26342;42.826;23.992;2024-03-08T04:04:21;95486.63;;;3.54;100.00
40650;BME280;26342;42.826;23.992;2024-03-08T04:06:46;95479.75;;;3.53;100.00
40650;BME280;26342;42.826;23.992;2024-03-08T04:09:12;95486.00;;;3.59;100.00
40650;BME280;26342;42.826;23.992;2024-03-08T04:11:38;95478.31;;;3.57;100.00
40650;BME280;26342;42.826;23.992;2024-03-08T04:14:04;95457.22;;;3.51;100.00
40650;BME280;26342;42.826;23.992;2024-03-08T04:16:30;95487.56;;;3.73;100.00
40650;BME280;26342;42.826;23.992;2024-03-08T04:18:57;95495.31;;;3.68;100.00
40650;BME280;26342;42.826;23.992;2024-03-08T04:21:22;95500.00;;;3.66;100.00
40650;BME280;26342;42.826;23.992;2024-03-08T04:23:48;95502.47;;;3.54;100.00
40650;BME280;26342;42.826;23.992;2024-03-08T04:26:13;95504.13;;;3.49;100.00
40650;BME280;26342;42.826;23.992;2024-03-08T04:28:39;95518.94;;;3.43;100.00
40650;BME280;26342;42.826;23.992;2024-03-08T04:31:05;95513.47;;;3.38;100.00
40650;BME280;26342;42.826;23.992;2024-03-08T04:33:30;95517.72;;;3.46;100.00
40650;BME280;26342;42.826;23.992;2024-03-08T04:35:55;95519.56;;;3.45;100.00
40650;BME280;26342;42.826;23.992;2024-03-08T04:38:21;95529.94;;;3.40;100.00
40650;BME280;26342;42.826;23.992;2024-03-08T04:40:48;95531.97;;;3.31;100.00
40650;BME280;26342;42.826;23.992;2024-03-08T04:43:14;95526.75;;;3.18;100.00
40650;BME280;26342;42.826;23.992;2024-03-08T04:45:40;95527.78;;;3.11;100.00
40650;BME280;26342;42.826;23.992;2024-03-08T04:48:07;95532.41;;;3.22;100.00
40650;BME280;26342;42.826;23.992;2024-03-08T04:50:33;95533.41;;;3.21;100.00
40650;BME280;26342;42.826;23.992;2024-03-08T04:52:59;95532.81;;;3.32;100.00
40650;BME280;26342;42.826;23.992;2024-03-08T04:55:24;95535.25;;;3.27;100.00
40650;BME280;26342;42.826;23.992;2024-03-08T04:57:50;95534.59;;;3.31;100.00
40650;BME280;26342;42.826;23.992;2024-03-08T05:00:16;95546.19;;;3.24;100.00
40650;BME280;26342;42.826;23.992;2024-03-08T05:02:41;95544.16;;;3.26;100.00
40650;BME280;26342;42.826;23.992;2024-03-08T05:05:08;95545.78;;;3.27;100.00
40650;BME280;26342;42.826;23.992;2024-03-08T05:07:36;95551.25;;;3.32;100.00
40650;BME280;26342;42.826;23.992;2024-03-08T05:10:01;95540.72;;;3.32;100.00
40650;BME280;26342;42.826;23.992;2024-03-08T05:12:27;95554.09;;;3.30;100.00
40650;BME280;26342;42.826;23.992;2024-03-08T05:14:53;95560.16;;;3.38;100.00
40650;BME280;26342;42.826;23.992;2024-03-08T05:17:19;95554.88;;;3.38;100.00
40650;BME280;26342;42.826;23.992;2024-03-08T05:19:44;95558.13;;;3.40;100.00
40650;BME280;26342;42.826;23.992;2024-03-08T05:22:10;95555.69;;;3.31;100.00
40650;BME280;26342;42.826;23.992;2024-03-08T05:24:36;95575.97;;;3.38;100.00
40650;BME280;26342;42.826;23.992;2024-03-08T05:27:01;95575.78;;;3.39;100.00
40650;BME280;26342;42.826;23.992;2024-03-08T05:29:29;95575.81;;;3.32;100.00
40650;BME280;26342;42.826;23.992;2024-03-08T05:31:55;95574.00;;;3.26;100.00
40650;BME280;26342;42.826;23.992;2024-03-08T05:34:21;95579.66;;;3.23;100.00
40650;BME280;26342;42.826;23.992;2024-03-08T05:36:47;95582.50;;;3.28;100.00
40650;BME280;26342;42.826;23.992;2024-03-08T05:39:15;95583.50;;;3.27;100.00
40650;BME280;26342;42.826;23.992;2024-03-08T05:41:41;95590.63;;;3.27;100.00
40650;BME280;26342;42.826;23.992;2024-03-08T05:44:07;95590.84;;;3.25;100.00
40650;BME280;26342;42.826;23.992;2024-03-08T05:46:34;95598.31;;;3.22;100.00
40650;BME280;26342;42.826;23.992;2024-03-08T05:49:01;95597.94;;;3.25;100.00
40650;BME280;26342;42.826;23.992;2024-03-08T05:51:34;95578.69;;;3.11;100.00
40650;BME280;26342;42.826;23.992;2024-03-08T05:54:03;95603.81;;;3.27;100.00
40650;BME280;26342;42.826;23.992;2024-03-08T05:56:33;95595.69;;;3.28;100.00
40650;BME280;26342;42.826;23.992;2024-03-08T05:58:58;95597.91;;;3.31;100.00
40650;BME280;26342;42.826;23.992;2024-03-08T06:01:30;95599.13;;;3.35;100.00
40650;BME280;26342;42.826;23.992;2024-03-08T06:03:56;95609.88;;;3.41;100.00
40650;BME280;26342;42.826;23.992;2024-03-08T06:06:23;95612.31;;;3.42;100.00
40650;BME280;26342;42.826;23.992;2024-03-08T06:08:49;95613.34;;;3.34;100.00
40650;BME280;26342;42.826;23.992;2024-03-08T06:11:15;95612.69;;;3.39;100.00
40650;BME280;26342;42.826;23.992;2024-03-08T06:13:42;95618.81;;;3.33;100.00
40650;BME280;26342;42.826;23.992;2024-03-08T06:16:08;95621.03;;;3.29;100.00
40650;BME280;26342;42.826;23.992;2024-03-08T06:18:34;95609.69;;;3.16;100.00
40650;BME280;26342;42.826;23.992;2024-03-08T06:21:03;95610.72;;;3.15;100.00
40650;BME280;26342;42.826;23.992;2024-03-08T06:23:30;95615.16;;;3.21;100.00
40650;BME280;26342;42.826;23.992;2024-03-08T06:25:55;95622.69;;;3.11;100.00
40650;BME280;26342;42.826;23.992;2024-03-08T06:28:22;95624.72;;;3.08;100.00
40650;BME280;26342;42.826;23.992;2024-03-08T06:30:48;95622.88;;;3.16;100.00
40650;BME280;26342;42.826;23.992;2024-03-08T06:33:13;95628.16;;;3.16;100.00
40650;BME280;26342;42.826;23.992;2024-03-08T06:35:39;95622.47;;;3.12;100.00
40650;BME280;26342;42.826;23.992;2024-03-08T06:38:04;95617.00;;;3.14;100.00
40650;BME280;26342;42.826;23.992;2024-03-08T06:40:30;95620.88;;;3.18;100.00
40650;BME280;26342;42.826;23.992;2024-03-08T06:42:55;95619.84;;;3.19;100.00
40650;BME280;26342;42.826;23.992;2024-03-08T06:45:20;95628.34;;;3.21;100.00
40650;BME280;26342;42.826;23.992;2024-03-08T06:47:48;95623.69;;;3.23;100.00
40650;BME280;26342;42.826;23.992;2024-03-08T06:50:14;95616.41;;;3.12;100.00
40650;BME280;26342;42.826;23.992;2024-03-08T06:52:40;95626.31;;;3.23;100.00
40650;BME280;26342;42.826;23.992;2024-03-08T06:55:08;95628.16;;;3.22;100.00
40650;BME280;26342;42.826;23.992;2024-03-08T06:57:38;95625.13;;;3.25;100.00
40650;BME280;26342;42.826;23.992;2024-03-08T07:00:06;95629.16;;;3.21;100.00
40650;BME280;26342;42.826;23.992;2024-03-08T07:02:34;95633.84;;;3.13;100.00
40650;BME280;26342;42.826;23.992;2024-03-08T07:05:01;95638.47;;;3.24;100.00
40650;BME280;26342;42.826;23.992;2024-03-08T07:07:26;95636.69;;;3.24;100.00
40650;BME280;26342;42.826;23.992;2024-03-08T07:09:52;95614.38;;;3.14;100.00
40650;BME280;26342;42.826;23.992;2024-03-08T07:12:17;95640.72;;;3.27;100.00
40650;BME280;26342;42.826;23.992;2024-03-08T07:14:43;95643.97;;;3.29;100.00
40650;BME280;26342;42.826;23.992;2024-03-08T07:17:11;95636.47;;;3.32;100.00
40650;BME280;26342;42.826;23.992;2024-03-08T07:19:37;95636.66;;;3.44;100.00
40650;BME280;26342;42.826;23.992;2024-03-08T07:22:04;95644.34;;;3.46;100.00
40650;BME280;26342;42.826;23.992;2024-03-08T07:24:29;95639.50;;;3.49;100.00
40650;BME280;26342;42.826;23.992;2024-03-08T07:27:26;95645.78;;;3.48;100.00
40650;BME280;26342;42.826;23.992;2024-03-08T07:29:52;95645.59;;;3.43;100.00
40650;BME280;26342;42.826;23.992;2024-03-08T07:32:17;95653.50;;;3.50;100.00
40650;BME280;26342;42.826;23.992;2024-03-08T07:34:50;95646.81;;;3.34;100.00
40650;BME280;26342;42.826;23.992;2024-03-08T07:37:17;95641.13;;;3.37;100.00
40650;BME280;26342;42.826;23.992;2024-03-08T07:39:42;95637.28;;;3.33;100.00
40650;BME280;26342;42.826;23.992;2024-03-08T07:42:09;95649.03;;;3.37;100.00
40650;BME280;26342;42.826;23.992;2024-03-08T07:44:35;95650.66;;;3.38;100.00
40650;BME280;26342;42.826;23.992;2024-03-08T07:47:00;95654.50;;;3.42;100.00
40650;BME280;26342;42.826;23.992;2024-03-08T07:49:26;95650.25;;;3.48;100.00
40650;BME280;26342;42.826;23.992;2024-03-08T07:51:51;95656.50;;;3.60;100.00
40650;BME280;26342;42.826;23.992;2024-03-08T07:54:17;95658.94;;;3.68;100.00
40650;BME280;26342;42.826;23.992;2024-03-08T07:56:42;95645.94;;;3.67;100.00
40650;BME280;26342;42.826;23.992;2024-03-08T07:59:08;95653.84;;;3.73;100.00
40650;BME280;26342;42.826;23.992;2024-03-08T08:01:33;95650.38;;;3.79;100.00
40650;BME280;26342;42.826;23.992;2024-03-08T08:03:59;95657.25;;;3.87;100.00
40650;BME280;26342;42.826;23.992;2024-03-08T08:06:27;95656.25;;;3.81;100.00
40650;BME280;26342;42.826;23.992;2024-03-08T08:08:52;95652.00;;;3.80;100.00
40650;BME280;26342;42.826;23.992;2024-03-08T08:11:19;95660.09;;;3.85;100.00
40650;BME280;26342;42.826;23.992;2024-03-08T08:13:45;95666.19;;;3.86;100.00
40650;BME280;26342;42.826;23.992;2024-03-08T08:16:10;95660.09;;;3.92;100.00
40650;BME280;26342;42.826;23.992;2024-03-08T08:18:36;95666.75;;;3.95;100.00
40650;BME280;26342;42.826;23.992;2024-03-08T08:21:05;95660.06;;;3.99;100.00
40650;BME280;26342;42.826;23.992;2024-03-08T08:23:33;95659.03;;;4.00;100.00
40650;BME280;26342;42.826;23.992;2024-03-08T08:25:59;95655.38;;;4.01;100.00
40650;BME280;26342;42.826;23.992;2024-03-08T08:28:24;95661.31;;;3.96;100.00
40650;BME280;26342;42.826;23.992;2024-03-08T08:30:50;95664.75;;;3.97;100.00
40650;BME280;26342;42.826;23.992;2024-03-08T08:33:16;95664.34;;;3.93;100.00
40650;BME280;26342;42.826;23.992;2024-03-08T08:35:41;95661.69;;;3.93;100.00
40650;BME280;26342;42.826;23.992;2024-03-08T08:38:07;95661.31;;;3.89;100.00
40650;BME280;26342;42.826;23.992;2024-03-08T08:40:33;95653.03;;;3.79;100.00
40650;BME280;26342;42.826;23.992;2024-03-08T08:43:01;95665.00;;;3.82;100.00
40650;BME280;26342;42.826;23.992;2024-03-08T08:45:30;95660.34;;;3.71;100.00
40650;BME280;26342;42.826;23.992;2024-03-08T08:47:55;95671.69;;;3.71;100.00
40650;BME280;26342;42.826;23.992;2024-03-08T08:50:21;95677.38;;;3.75;100.00
40650;BME280;26342;42.826;23.992;2024-03-08T08:52:49;95667.63;;;3.75;100.00
40650;BME280;26342;42.826;23.992;2024-03-08T08:55:15;95657.28;;;3.80;100.00
40650;BME280;26342;42.826;23.992;2024-03-08T08:57:43;95666.22;;;3.79;100.00
40650;BME280;26342;42.826;23.992;2024-03-08T09:00:09;95669.25;;;3.83;100.00
40650;BME280;26342;42.826;23.992;2024-03-08T09:02:40;95667.66;;;3.69;100.00
40650;BME280;26342;42.826;23.992;2024-03-08T09:05:06;95666.47;;;3.64;100.00
40650;BME280;26342;42.826;23.992;2024-03-08T09:07:33;95666.25;;;3.66;100.00
40650;BME280;26342;42.826;23.992;2024-03-08T09:09:59;95667.66;;;3.62;100.00
40650;BME280;26342;42.826;23.992;2024-03-08T09:12:25;95665.44;;;3.72;100.00
40650;BME280;26342;42.826;23.992;2024-03-08T09:14:50;95674.97;;;3.73;100.00
40650;BME280;26342;42.826;23.992;2024-03-08T09:17:16;95671.09;;;3.69;100.00
40650;BME280;26342;42.826;23.992;2024-03-08T09:19:48;95660.75;;;3.61;100.00
40650;BME280;26342;42.826;23.992;2024-03-08T09:22:14;95667.84;;;3.74;100.00
40650;BME280;26342;42.826;23.992;2024-03-08T09:24:39;95660.75;;;3.68;100.00
40650;BME280;26342;42.826;23.992;2024-03-08T09:27:05;95665.38;;;3.79;100.00
40650;BME280;26342;42.826;23.992;2024-03-08T09:29:31;95662.78;;;3.72;100.00
40650;BME280;26342;42.826;23.992;2024-03-08T09:31:57;95670.88;;;3.77;100.00
40650;BME280;26342;42.826;23.992;2024-03-08T09:34:22;95667.63;;;3.88;100.00
40650;BME280;26342;42.826;23.992;2024-03-08T09:36:48;95667.22;;;3.85;100.00
40650;BME280;26342;42.826;23.992;2024-03-08T09:39:14;95674.09;;;3.92;100.00
40650;BME280;26342;42.826;23.992;2024-03-08T09:41:44;95672.25;;;3.93;100.00
40650;BME280;26342;42.826;23.992;2024-03-08T09:44:13;95675.09;;;4.05;100.00
40650;BME280;26342;42.826;23.992;2024-03-08T09:46:39;95671.63;;;4.04;100.00
40650;BME280;26342;42.826;23.992;2024-03-08T09:49:06;95678.53;;;4.05;100.00
40650;BME280;26342;42.826;23.992;2024-03-08T09:51:33;95676.50;;;4.07;100.00
40650;BME280;26342;42.826;23.992;2024-03-08T09:54:00;95675.88;;;4.12;100.00
40650;BME280;26342;42.826;23.992;2024-03-08T09:56:26;95672.59;;;4.16;100.00
40650;BME280;26342;42.826;23.992;2024-03-08T09:58:53;95669.97;;;4.10;100.00
40650;BME280;26342;42.826;23.992;2024-03-08T10:01:30;95680.56;;;4.03;100.00
40650;BME280;26342;42.826;23.992;2024-03-08T10:03:57;95679.94;;;4.01;100.00
40650;BME280;26342;42.826;23.992;2024-03-08T10:06:23;95669.59;;;4.06;100.00
40650;BME280;26342;42.826;23.992;2024-03-08T10:08:49;95676.91;;;4.11;100.00
40650;BME280;26342;42.826;23.992;2024-03-08T10:11:17;95672.59;;;4.16;100.00
40650;BME280;26342;42.826;23.992;2024-03-08T10:13:44;95674.84;;;4.19;100.00
40650;BME280;26342;42.826;23.992;2024-03-08T10:16:11;95670.53;;;4.25;100.00
40650;BME280;26342;42.826;23.992;2024-03-08T10:18:37;95673.97;;;4.26;100.00
40650;BME280;26342;42.826;23.992;2024-03-08T10:21:03;95668.31;;;4.22;100.00
40650;BME280;26342;42.826;23.992;2024-03-08T10:23:30;95662.00;;;4.23;100.00
40650;BME280;26342;42.826;23.992;2024-03-08T10:25:55;95658.31;;;4.31;100.00
40650;BME280;26342;42.826;23.992;2024-03-08T10:28:23;95663.97;;;4.34;100.00
40650;BME280;26342;42.826;23.992;2024-03-08T10:30:50;95661.53;;;4.33;100.00
40650;BME280;26342;42.826;23.992;2024-03-08T10:33:15;95669.69;;;4.31;100.00
40650;BME280;26342;42.826;23.992;2024-03-08T10:35:40;95651.22;;;4.25;100.00
40650;BME280;26342;42.826;23.992;2024-03-08T10:38:08;95662.78;;;4.30;100.00
40650;BME280;26342;42.826;23.992;2024-03-08T10:40:38;95672.75;;;4.35;100.00
40650;BME280;26342;42.826;23.992;2024-03-08T10:43:06;95662.97;;;4.35;100.00
40650;BME280;26342;42.826;23.992;2024-03-08T10:45:39;95664.81;;;4.35;100.00
40650;BME280;26342;42.826;23.992;2024-03-08T10:50:53;95652.66;;;4.27;100.00
40650;BME280;26342;42.826;23.992;2024-03-08T10:53:19;95662.59;;;4.25;100.00
40650;BME280;26342;42.826;23.992;2024-03-08T10:55:46;95662.25;;;4.15;100.00
40650;BME280;26342;42.826;23.992;2024-03-08T10:58:12;95667.75;;;4.07;100.00
40650;BME280;26342;42.826;23.992;2024-03-08T11:00:38;95659.69;;;3.95;100.00
40650;BME280;26342;42.826;23.992;2024-03-08T11:03:04;95657.84;;;3.96;100.00
40650;BME280;26342;42.826;23.992;2024-03-08T11:05:40;95659.69;;;3.88;100.00
40650;BME280;26342;42.826;23.992;2024-03-08T11:10:50;95645.50;;;3.76;100.00
40650;BME280;26342;42.826;23.992;2024-03-08T11:15:59;95642.66;;;3.71;100.00
40650;BME280;26342;42.826;23.992;2024-03-08T11:18:26;95646.75;;;3.74;100.00
40650;BME280;26342;42.826;23.992;2024-03-08T11:20:54;95633.56;;;3.67;100.00
40650;BME280;26342;42.826;23.992;2024-03-08T11:23:22;95647.19;;;3.64;100.00
40650;BME280;26342;42.826;23.992;2024-03-08T11:25:48;95642.28;;;3.68;100.00
40650;BME280;26342;42.826;23.992;2024-03-08T11:28:19;95642.03;;;3.82;100.00
40650;BME280;26342;42.826;23.992;2024-03-08T11:33:27;95643.63;;;3.97;100.00
40650;BME280;26342;42.826;23.992;2024-03-08T11:36:02;95641.78;;;4.04;100.00
40650;BME280;26342;42.826;23.992;2024-03-08T11:38:29;95640.31;;;4.14;100.00
40650;BME280;26342;42.826;23.992;2024-03-08T11:40:56;95640.72;;;4.11;100.00
40650;BME280;26342;42.826;23.992;2024-03-08T11:43:22;95643.47;;;4.30;100.00
40650;BME280;26342;42.826;23.992;2024-03-08T11:45:47;95642.09;;;4.27;100.00
40650;BME280;26342;42.826;23.992;2024-03-08T11:48:13;95642.03;;;4.34;100.00
40650;BME280;26342;42.826;23.992;2024-03-08T11:50:39;95634.09;;;4.34;100.00
40650;BME280;26342;42.826;23.992;2024-03-08T11:53:05;95628.78;;;4.40;100.00
40650;BME280;26342;42.826;23.992;2024-03-08T11:55:32;95625.31;;;4.46;100.00
40650;BME280;26342;42.826;23.992;2024-03-08T11:58:04;95624.75;;;4.38;100.00
40650;BME280;26342;42.826;23.992;2024-03-08T12:00:30;95620.03;;;4.46;100.00
40650;BME280;26342;42.826;23.992;2024-03-08T12:03:07;95614.91;;;4.52;100.00
40650;BME280;26342;42.826;23.992;2024-03-08T12:05:35;95619.53;;;4.56;100.00
40650;BME280;26342;42.826;23.992;2024-03-08T12:08:04;95610.00;;;4.55;100.00
40650;BME280;26342;42.826;23.992;2024-03-08T12:10:32;95615.84;;;4.64;100.00
40650;BME280;26342;42.826;23.992;2024-03-08T12:12:59;95611.88;;;4.48;100.00
40650;BME280;26342;42.826;23.992;2024-03-08T12:15:29;95611.88;;;4.48;100.00
40650;BME280;26342;42.826;23.992;2024-03-08T12:17:55;95611.88;;;4.48;100.00
40650;BME280;26342;42.826;23.992;2024-03-08T12:20:22;95621.00;;;4.52;100.00
40650;BME280;26342;42.826;23.992;2024-03-08T12:22:49;95617.53;;;4.58;100.00
40650;BME280;26342;42.826;23.992;2024-03-08T12:25:15;95615.59;;;4.72;100.00
40650;BME280;26342;42.826;23.992;2024-03-08T12:27:42;95617.38;;;4.78;100.00
40650;BME280;26342;42.826;23.992;2024-03-08T12:32:53;95616.84;;;4.69;100.00
40650;BME280;26342;42.826;23.992;2024-03-08T12:35:20;95610.56;;;4.64;100.00
40650;BME280;26342;42.826;23.992;2024-03-08T12:37:48;95609.34;;;4.66;100.00
40650;BME280;26342;42.826;23.992;2024-03-08T12:40:14;95614.38;;;4.74;100.00
40650;BME280;26342;42.826;23.992;2024-03-08T12:42:45;95616.03;;;4.69;100.00
40650;BME280;26342;42.826;23.992;2024-03-08T12:45:13;95611.00;;;4.61;100.00
40650;BME280;26342;42.826;23.992;2024-03-08T12:47:39;95610.78;;;4.62;100.00
40650;BME280;26342;42.826;23.992;2024-03-08T12:50:07;95607.44;;;4.73;100.00
40650;BME280;26342;42.826;23.992;2024-03-08T12:52:34;95607.16;;;4.82;100.00
40650;BME280;26342;42.826;23.992;2024-03-08T12:54:59;95605.69;;;4.92;100.00
40650;BME280;26342;42.826;23.992;2024-03-08T12:57:32;95607.88;;;4.95;100.00
40650;BME280;26342;42.826;23.992;2024-03-08T12:59:58;95606.09;;;4.89;100.00